FYWH

Hosea Kutako International Airport

Windhoek, Namibia
METAR FYWH 191800Z 15007KT CAVOK 18/M11 Q1026 NOSIG
Observed Flight Rules
Sep-19 @ 18:00 UTC (51 minutes ago) Visual Flight Rules
Wind Visibility Clouds
150° at 7 knots 10,000+ meters
  • Clear skies
Temperatures Readings
Current 18°C / 64°F
Dewpoint -11°C / 12°F
Humidity 13%
Altimeter 30.3" Hg
Pressure 1026 hPa
Elevation 1700
METAR FYWH 191800Z 15007KT CAVOK 18/M11 Q1026 NOSIG
Observed Flight Rules
Sep-19 @ 18:00 UTC
(51 minutes ago)
VFR
Wind Visibility
150° at 7 knots 10,000+ meters
Clouds
  • Clear skies
Temperature Dewpoint
18°C / 64°F -11°C / 12°F
Humidity Altimeter Pressure
13% 30.3" Hg 1026 hPa